sensor_id;sensor_type;location;lat;lon;timestamp;P1;durP1;ratioP1;P2;durP2;ratioP2
11711;SDS011;5912;51.034;6.984;2023-07-24T00:00:43;3.42;;;1.98;;
11711;SDS011;5912;51.034;6.984;2023-07-24T00:03:09;2.22;;;2.03;;
11711;SDS011;5912;51.034;6.984;2023-07-24T00:05:34;2.75;;;1.90;;
11711;SDS011;5912;51.034;6.984;2023-07-24T00:07:59;2.90;;;2.22;;
11711;SDS011;5912;51.034;6.984;2023-07-24T00:10:25;2.20;;;2.00;;
11711;SDS011;5912;51.034;6.984;2023-07-24T00:12:50;2.20;;;2.00;;
11711;SDS011;5912;51.034;6.984;2023-07-24T00:15:15;2.28;;;2.08;;
11711;SDS011;5912;51.034;6.984;2023-07-24T00:17:41;2.75;;;2.33;;
11711;SDS011;5912;51.034;6.984;2023-07-24T00:20:06;3.00;;;2.15;;
11711;SDS011;5912;51.034;6.984;2023-07-24T00:22:32;4.40;;;2.50;;
11711;SDS011;5912;51.034;6.984;2023-07-24T00:24:57;2.65;;;2.22;;
11711;SDS011;5912;51.034;6.984;2023-07-24T00:27:22;3.38;;;2.35;;
11711;SDS011;5912;51.034;6.984;2023-07-24T00:29:48;3.78;;;2.58;;
11711;SDS011;5912;51.034;6.984;2023-07-24T00:32:13;2.63;;;2.42;;
11711;SDS011;5912;51.034;6.984;2023-07-24T00:34:38;3.85;;;2.72;;
11711;SDS011;5912;51.034;6.984;2023-07-24T00:37:04;3.00;;;2.58;;
11711;SDS011;5912;51.034;6.984;2023-07-24T00:39:29;3.42;;;2.45;;
11711;SDS011;5912;51.034;6.984;2023-07-24T00:41:55;2.80;;;2.47;;
11711;SDS011;5912;51.034;6.984;2023-07-24T00:44:20;2.83;;;2.40;;
11711;SDS011;5912;51.034;6.984;2023-07-24T00:46:45;3.05;;;2.22;;
11711;SDS011;5912;51.034;6.984;2023-07-24T00:49:11;3.17;;;2.38;;
11711;SDS011;5912;51.034;6.984;2023-07-24T00:51:37;3.78;;;2.30;;
11711;SDS011;5912;51.034;6.984;2023-07-24T00:54:03;3.60;;;2.70;;
11711;SDS011;5912;51.034;6.984;2023-07-24T00:56:31;2.58;;;2.38;;
11711;SDS011;5912;51.034;6.984;2023-07-24T00:58:57;3.22;;;2.42;;
11711;SDS011;5912;51.034;6.984;2023-07-24T01:01:24;3.60;;;2.50;;
11711;SDS011;5912;51.034;6.984;2023-07-24T01:03:50;3.65;;;2.50;;
11711;SDS011;5912;51.034;6.984;2023-07-24T01:06:16;4.38;;;2.58;;
11711;SDS011;5912;51.034;6.984;2023-07-24T01:08:42;4.70;;;2.80;;
11711;SDS011;5912;51.034;6.984;2023-07-24T01:11:21;3.03;;;2.60;;
11711;SDS011;5912;51.034;6.984;2023-07-24T01:13:56;3.30;;;2.40;;
11711;SDS011;5912;51.034;6.984;2023-07-24T01:16:26;3.63;;;2.55;;
11711;SDS011;5912;51.034;6.984;2023-07-24T01:18:58;5.72;;;2.72;;
11711;SDS011;5912;51.034;6.984;2023-07-24T01:21:29;3.60;;;2.70;;
11711;SDS011;5912;51.034;6.984;2023-07-24T01:24:09;2.65;;;2.45;;
11711;SDS011;5912;51.034;6.984;2023-07-24T01:26:45;3.92;;;3.08;;
11711;SDS011;5912;51.034;6.984;2023-07-24T01:29:11;3.03;;;2.60;;
11711;SDS011;5912;51.034;6.984;2023-07-24T01:31:36;3.20;;;2.90;;
11711;SDS011;5912;51.034;6.984;2023-07-24T01:34:01;4.70;;;2.50;;
11711;SDS011;5912;51.034;6.984;2023-07-24T01:36:27;2.50;;;2.00;;
11711;SDS011;5912;51.034;6.984;2023-07-24T01:38:52;3.08;;;2.60;;
11711;SDS011;5912;51.034;6.984;2023-07-24T01:41:18;3.28;;;2.80;;
11711;SDS011;5912;51.034;6.984;2023-07-24T01:43:44;3.05;;;2.75;;
11711;SDS011;5912;51.034;6.984;2023-07-24T01:46:09;4.22;;;2.38;;
11711;SDS011;5912;51.034;6.984;2023-07-24T01:48:35;2.70;;;2.50;;
11711;SDS011;5912;51.034;6.984;2023-07-24T01:51:00;4.20;;;2.67;;
11711;SDS011;5912;51.034;6.984;2023-07-24T01:53:25;3.22;;;2.38;;
11711;SDS011;5912;51.034;6.984;2023-07-24T01:55:51;2.75;;;2.25;;
11711;SDS011;5912;51.034;6.984;2023-07-24T01:58:16;3.42;;;2.58;;
11711;SDS011;5912;51.034;6.984;2023-07-24T02:00:41;3.50;;;2.85;;
11711;SDS011;5912;51.034;6.984;2023-07-24T02:03:07;2.70;;;2.35;;
11711;SDS011;5912;51.034;6.984;2023-07-24T02:05:32;4.22;;;3.00;;
11711;SDS011;5912;51.034;6.984;2023-07-24T02:07:57;4.35;;;2.80;;
11711;SDS011;5912;51.034;6.984;2023-07-24T02:10:23;3.67;;;2.60;;
11711;SDS011;5912;51.034;6.984;2023-07-24T02:12:48;4.40;;;2.65;;
11711;SDS011;5912;51.034;6.984;2023-07-24T02:15:13;3.20;;;2.90;;
11711;SDS011;5912;51.034;6.984;2023-07-24T02:17:38;2.63;;;2.40;;
11711;SDS011;5912;51.034;6.984;2023-07-24T02:20:04;3.22;;;2.67;;
11711;SDS011;5912;51.034;6.984;2023-07-24T02:22:30;3.17;;;2.63;;
11711;SDS011;5912;51.034;6.984;2023-07-24T02:24:55;3.55;;;2.90;;
11711;SDS011;5912;51.034;6.984;2023-07-24T02:27:30;4.22;;;3.28;;
11711;SDS011;5912;51.034;6.984;2023-07-24T02:29:59;4.30;;;2.70;;
11711;SDS011;5912;51.034;6.984;2023-07-24T02:32:25;5.55;;;3.63;;
11711;SDS011;5912;51.034;6.984;2023-07-24T02:34:50;3.35;;;3.05;;
11711;SDS011;5912;51.034;6.984;2023-07-24T02:37:17;4.80;;;2.97;;
11711;SDS011;5912;51.034;6.984;2023-07-24T02:39:42;3.67;;;3.00;;
11711;SDS011;5912;51.034;6.984;2023-07-24T02:42:08;3.67;;;3.08;;
11711;SDS011;5912;51.034;6.984;2023-07-24T02:44:34;3.53;;;2.90;;
11711;SDS011;5912;51.034;6.984;2023-07-24T02:46:59;3.28;;;2.95;;
11711;SDS011;5912;51.034;6.984;2023-07-24T02:49:25;3.05;;;2.70;;
11711;SDS011;5912;51.034;6.984;2023-07-24T02:51:50;3.42;;;2.90;;
11711;SDS011;5912;51.034;6.984;2023-07-24T02:54:15;6.22;;;3.75;;
11711;SDS011;5912;51.034;6.984;2023-07-24T02:56:41;4.68;;;3.28;;
11711;SDS011;5912;51.034;6.984;2023-07-24T02:59:06;4.53;;;3.42;;
11711;SDS011;5912;51.034;6.984;2023-07-24T03:01:31;4.22;;;2.97;;
11711;SDS011;5912;51.034;6.984;2023-07-24T03:03:56;3.80;;;2.85;;
11711;SDS011;5912;51.034;6.984;2023-07-24T03:06:22;3.95;;;3.00;;
11711;SDS011;5912;51.034;6.984;2023-07-24T03:08:47;4.13;;;2.83;;
11711;SDS011;5912;51.034;6.984;2023-07-24T03:11:13;6.32;;;3.28;;
11711;SDS011;5912;51.034;6.984;2023-07-24T03:13:38;3.22;;;2.92;;
11711;SDS011;5912;51.034;6.984;2023-07-24T03:16:06;3.35;;;2.80;;
11711;SDS011;5912;51.034;6.984;2023-07-24T03:18:31;4.85;;;3.55;;
11711;SDS011;5912;51.034;6.984;2023-07-24T03:20:57;5.65;;;3.47;;
11711;SDS011;5912;51.034;6.984;2023-07-24T03:23:23;3.83;;;2.97;;
11711;SDS011;5912;51.034;6.984;2023-07-24T03:25:48;4.97;;;3.33;;
11711;SDS011;5912;51.034;6.984;2023-07-24T03:28:14;3.80;;;2.88;;
11711;SDS011;5912;51.034;6.984;2023-07-24T03:30:39;4.03;;;3.00;;
11711;SDS011;5912;51.034;6.984;2023-07-24T03:33:04;3.92;;;3.08;;
11711;SDS011;5912;51.034;6.984;2023-07-24T03:35:31;4.32;;;3.47;;
11711;SDS011;5912;51.034;6.984;2023-07-24T03:37:56;3.38;;;3.05;;
11711;SDS011;5912;51.034;6.984;2023-07-24T03:40:22;4.53;;;3.30;;
11711;SDS011;5912;51.034;6.984;2023-07-24T03:42:47;7.28;;;3.28;;
11711;SDS011;5912;51.034;6.984;2023-07-24T03:45:12;5.45;;;3.38;;
11711;SDS011;5912;51.034;6.984;2023-07-24T03:47:37;5.07;;;3.20;;
11711;SDS011;5912;51.034;6.984;2023-07-24T03:50:03;4.95;;;3.42;;
11711;SDS011;5912;51.034;6.984;2023-07-24T03:52:28;5.20;;;3.30;;
11711;SDS011;5912;51.034;6.984;2023-07-24T03:54:54;4.03;;;3.33;;
11711;SDS011;5912;51.034;6.984;2023-07-24T03:57:19;3.63;;;3.03;;
11711;SDS011;5912;51.034;6.984;2023-07-24T03:59:44;5.25;;;3.60;;
11711;SDS011;5912;51.034;6.984;2023-07-24T04:02:10;4.65;;;3.53;;
11711;SDS011;5912;51.034;6.984;2023-07-24T04:04:35;4.30;;;3.05;;
11711;SDS011;5912;51.034;6.984;2023-07-24T04:07:00;5.10;;;3.25;;
11711;SDS011;5912;51.034;6.984;2023-07-24T04:09:26;4.50;;;3.30;;
11711;SDS011;5912;51.034;6.984;2023-07-24T04:11:51;4.85;;;3.70;;
11711;SDS011;5912;51.034;6.984;2023-07-24T04:14:17;5.10;;;3.60;;
11711;SDS011;5912;51.034;6.984;2023-07-24T04:16:42;7.82;;;3.78;;
11711;SDS011;5912;51.034;6.984;2023-07-24T04:19:07;5.45;;;4.00;;
11711;SDS011;5912;51.034;6.984;2023-07-24T04:21:33;5.47;;;4.03;;
11711;SDS011;5912;51.034;6.984;2023-07-24T04:23:59;5.50;;;4.03;;
11711;SDS011;5912;51.034;6.984;2023-07-24T04:26:24;5.20;;;4.00;;
11711;SDS011;5912;51.034;6.984;2023-07-24T04:28:49;4.40;;;3.85;;
11711;SDS011;5912;51.034;6.984;2023-07-24T04:31:14;6.57;;;3.50;;
11711;SDS011;5912;51.034;6.984;2023-07-24T04:33:40;4.05;;;3.40;;
11711;SDS011;5912;51.034;6.984;2023-07-24T04:36:05;4.38;;;3.35;;
11711;SDS011;5912;51.034;6.984;2023-07-24T04:38:30;5.35;;;3.22;;
11711;SDS011;5912;51.034;6.984;2023-07-24T04:40:56;4.05;;;2.95;;
11711;SDS011;5912;51.034;6.984;2023-07-24T04:43:21;4.35;;;2.83;;
11711;SDS011;5912;51.034;6.984;2023-07-24T04:45:46;3.75;;;2.97;;
11711;SDS011;5912;51.034;6.984;2023-07-24T04:48:12;5.05;;;2.83;;
11711;SDS011;5912;51.034;6.984;2023-07-24T04:50:37;5.35;;;3.17;;
11711;SDS011;5912;51.034;6.984;2023-07-24T04:53:02;5.80;;;3.05;;
11711;SDS011;5912;51.034;6.984;2023-07-24T04:55:27;3.50;;;3.08;;
11711;SDS011;5912;51.034;6.984;2023-07-24T04:57:53;5.80;;;3.05;;
11711;SDS011;5912;51.034;6.984;2023-07-24T05:00:18;4.05;;;3.30;;
11711;SDS011;5912;51.034;6.984;2023-07-24T05:02:44;5.18;;;2.90;;
11711;SDS011;5912;51.034;6.984;2023-07-24T05:05:09;4.40;;;3.17;;
11711;SDS011;5912;51.034;6.984;2023-07-24T05:07:34;4.32;;;3.80;;
11711;SDS011;5912;51.034;6.984;2023-07-24T05:10:00;5.18;;;3.40;;
11711;SDS011;5912;51.034;6.984;2023-07-24T05:12:25;4.95;;;3.28;;
11711;SDS011;5912;51.034;6.984;2023-07-24T05:14:50;3.90;;;3.20;;
11711;SDS011;5912;51.034;6.984;2023-07-24T05:17:16;4.97;;;3.25;;
11711;SDS011;5912;51.034;6.984;2023-07-24T05:19:41;5.30;;;3.35;;
11711;SDS011;5912;51.034;6.984;2023-07-24T05:22:07;5.68;;;3.10;;
11711;SDS011;5912;51.034;6.984;2023-07-24T05:24:32;5.68;;;3.00;;
11711;SDS011;5912;51.034;6.984;2023-07-24T05:26:58;3.47;;;3.13;;
11711;SDS011;5912;51.034;6.984;2023-07-24T05:29:23;7.25;;;3.30;;
11711;SDS011;5912;51.034;6.984;2023-07-24T05:31:49;6.43;;;3.33;;
11711;SDS011;5912;51.034;6.984;2023-07-24T05:34:14;5.63;;;4.10;;
11711;SDS011;5912;51.034;6.984;2023-07-24T05:36:40;3.95;;;3.20;;
11711;SDS011;5912;51.034;6.984;2023-07-24T05:39:06;4.05;;;3.10;;
11711;SDS011;5912;51.034;6.984;2023-07-24T05:41:31;4.75;;;3.03;;
11711;SDS011;5912;51.034;6.984;2023-07-24T05:43:57;5.80;;;3.53;;
11711;SDS011;5912;51.034;6.984;2023-07-24T05:46:22;4.45;;;3.38;;
11711;SDS011;5912;51.034;6.984;2023-07-24T05:48:47;4.78;;;3.58;;
11711;SDS011;5912;51.034;6.984;2023-07-24T05:51:13;4.38;;;3.10;;
11711;SDS011;5912;51.034;6.984;2023-07-24T05:53:38;4.57;;;3.05;;
11711;SDS011;5912;51.034;6.984;2023-07-24T05:56:03;5.30;;;2.97;;
11711;SDS011;5912;51.034;6.984;2023-07-24T05:58:29;5.35;;;2.95;;
11711;SDS011;5912;51.034;6.984;2023-07-24T06:00:54;5.00;;;3.22;;
11711;SDS011;5912;51.034;6.984;2023-07-24T06:03:23;5.82;;;3.10;;
11711;SDS011;5912;51.034;6.984;2023-07-24T06:05:54;5.13;;;3.25;;
11711;SDS011;5912;51.034;6.984;2023-07-24T06:08:21;4.32;;;3.22;;
11711;SDS011;5912;51.034;6.984;2023-07-24T06:10:48;4.07;;;3.03;;
11711;SDS011;5912;51.034;6.984;2023-07-24T06:13:17;5.43;;;3.08;;
11711;SDS011;5912;51.034;6.984;2023-07-24T06:15:43;5.07;;;3.03;;
11711;SDS011;5912;51.034;6.984;2023-07-24T06:18:09;4.57;;;3.25;;
11711;SDS011;5912;51.034;6.984;2023-07-24T06:20:35;5.85;;;2.67;;
11711;SDS011;5912;51.034;6.984;2023-07-24T06:23:01;4.00;;;2.67;;
11711;SDS011;5912;51.034;6.984;2023-07-24T06:25:28;6.03;;;2.60;;
11711;SDS011;5912;51.034;6.984;2023-07-24T06:27:54;3.75;;;2.90;;
11711;SDS011;5912;51.034;6.984;2023-07-24T06:30:19;4.10;;;2.80;;
11711;SDS011;5912;51.034;6.984;2023-07-24T06:32:44;3.83;;;2.70;;
11711;SDS011;5912;51.034;6.984;2023-07-24T06:35:10;2.90;;;2.53;;
11711;SDS011;5912;51.034;6.984;2023-07-24T06:37:35;3.83;;;2.65;;
11711;SDS011;5912;51.034;6.984;2023-07-24T06:40:00;4.07;;;2.42;;
11711;SDS011;5912;51.034;6.984;2023-07-24T06:42:25;4.20;;;2.58;;
11711;SDS011;5912;51.034;6.984;2023-07-24T06:44:51;4.05;;;2.70;;
11711;SDS011;5912;51.034;6.984;2023-07-24T06:47:16;3.13;;;2.50;;
11711;SDS011;5912;51.034;6.984;2023-07-24T06:49:42;3.92;;;2.75;;
11711;SDS011;5912;51.034;6.984;2023-07-24T06:52:07;3.17;;;2.47;;
11711;SDS011;5912;51.034;6.984;2023-07-24T06:54:32;3.85;;;2.55;;
11711;SDS011;5912;51.034;6.984;2023-07-24T06:56:58;3.58;;;2.58;;
11711;SDS011;5912;51.034;6.984;2023-07-24T06:59:23;4.53;;;2.45;;
11711;SDS011;5912;51.034;6.984;2023-07-24T07:01:48;2.95;;;2.33;;
11711;SDS011;5912;51.034;6.984;2023-07-24T07:04:14;4.18;;;2.35;;
11711;SDS011;5912;51.034;6.984;2023-07-24T07:06:39;3.47;;;2.55;;
11711;SDS011;5912;51.034;6.984;2023-07-24T07:09:04;5.75;;;2.33;;
11711;SDS011;5912;51.034;6.984;2023-07-24T07:11:30;3.08;;;2.38;;
11711;SDS011;5912;51.034;6.984;2023-07-24T07:13:55;3.50;;;2.28;;
11711;SDS011;5912;51.034;6.984;2023-07-24T07:16:21;5.63;;;2.42;;
11711;SDS011;5912;51.034;6.984;2023-07-24T07:18:46;4.63;;;2.38;;
11711;SDS011;5912;51.034;6.984;2023-07-24T07:21:11;2.72;;;2.00;;
11711;SDS011;5912;51.034;6.984;2023-07-24T07:23:37;2.63;;;2.17;;
11711;SDS011;5912;51.034;6.984;2023-07-24T07:26:02;3.40;;;1.90;;
11711;SDS011;5912;51.034;6.984;2023-07-24T07:28:27;5.70;;;2.50;;
11711;SDS011;5912;51.034;6.984;2023-07-24T07:30:53;2.55;;;2.00;;
11711;SDS011;5912;51.034;6.984;2023-07-24T07:33:19;2.28;;;1.95;;
11711;SDS011;5912;51.034;6.984;2023-07-24T07:35:46;2.80;;;2.15;;
11711;SDS011;5912;51.034;6.984;2023-07-24T07:38:12;3.08;;;2.13;;
11711;SDS011;5912;51.034;6.984;2023-07-24T07:40:37;2.50;;;2.00;;
11711;SDS011;5912;51.034;6.984;2023-07-24T07:43:04;4.32;;;1.90;;
11711;SDS011;5912;51.034;6.984;2023-07-24T07:45:29;2.60;;;1.92;;
11711;SDS011;5912;51.034;6.984;2023-07-24T07:48:10;3.17;;;2.13;;
11711;SDS011;5912;51.034;6.984;2023-07-24T07:50:35;3.20;;;2.13;;
11711;SDS011;5912;51.034;6.984;2023-07-24T07:53:01;2.50;;;1.85;;
11711;SDS011;5912;51.034;6.984;2023-07-24T07:55:26;2.90;;;2.10;;
11711;SDS011;5912;51.034;6.984;2023-07-24T07:57:51;3.65;;;1.95;;
11711;SDS011;5912;51.034;6.984;2023-07-24T08:00:20;2.88;;;2.13;;
11711;SDS011;5912;51.034;6.984;2023-07-24T08:02:45;2.50;;;2.08;;
11711;SDS011;5912;51.034;6.984;2023-07-24T08:05:11;2.50;;;2.17;;
11711;SDS011;5912;51.034;6.984;2023-07-24T08:07:36;2.17;;;1.95;;
11711;SDS011;5912;51.034;6.984;2023-07-24T08:10:02;2.22;;;2.03;;
11711;SDS011;5912;51.034;6.984;2023-07-24T08:12:28;4.30;;;2.42;;
11711;SDS011;5912;51.034;6.984;2023-07-24T08:14:53;3.67;;;2.53;;
11711;SDS011;5912;51.034;6.984;2023-07-24T08:17:19;3.67;;;2.20;;
11711;SDS011;5912;51.034;6.984;2023-07-24T08:19:45;2.88;;;2.30;;
11711;SDS011;5912;51.034;6.984;2023-07-24T08:22:10;2.08;;;1.88;;
11711;SDS011;5912;51.034;6.984;2023-07-24T08:24:35;3.00;;;2.13;;
11711;SDS011;5912;51.034;6.984;2023-07-24T08:27:01;3.83;;;2.40;;
11711;SDS011;5912;51.034;6.984;2023-07-24T08:29:27;2.80;;;2.47;;
11711;SDS011;5912;51.034;6.984;2023-07-24T08:31:52;2.70;;;2.20;;
11711;SDS011;5912;51.034;6.984;2023-07-24T08:34:17;3.13;;;2.40;;
11711;SDS011;5912;51.034;6.984;2023-07-24T08:36:43;2.58;;;2.17;;
11711;SDS011;5912;51.034;6.984;2023-07-24T08:39:08;3.38;;;2.55;;
11711;SDS011;5912;51.034;6.984;2023-07-24T08:41:33;2.45;;;2.08;;
11711;SDS011;5912;51.034;6.984;2023-07-24T08:44:00;3.03;;;2.10;;
11711;SDS011;5912;51.034;6.984;2023-07-24T08:46:26;3.53;;;2.13;;
11711;SDS011;5912;51.034;6.984;2023-07-24T08:48:52;3.28;;;2.30;;
11711;SDS011;5912;51.034;6.984;2023-07-24T08:51:19;3.17;;;2.38;;
11711;SDS011;5912;51.034;6.984;2023-07-24T08:53:47;2.33;;;2.00;;
11711;SDS011;5912;51.034;6.984;2023-07-24T08:56:13;2.45;;;2.22;;
11711;SDS011;5912;51.034;6.984;2023-07-24T08:58:39;3.28;;;2.50;;
11711;SDS011;5912;51.034;6.984;2023-07-24T09:01:05;3.03;;;2.42;;
11711;SDS011;5912;51.034;6.984;2023-07-24T09:03:34;2.80;;;2.35;;
11711;SDS011;5912;51.034;6.984;2023-07-24T09:06:00;3.88;;;2.08;;
11711;SDS011;5912;51.034;6.984;2023-07-24T09:11:45;2.40;;;1.98;;
11711;SDS011;5912;51.034;6.984;2023-07-24T09:14:24;2.40;;;2.08;;
11711;SDS011;5912;51.034;6.984;2023-07-24T09:17:01;2.75;;;2.20;;
11711;SDS011;5912;51.034;6.984;2023-07-24T09:19:30;2.95;;;2.40;;
11711;SDS011;5912;51.034;6.984;2023-07-24T09:21:55;2.92;;;2.40;;
11711;SDS011;5912;51.034;6.984;2023-07-24T09:24:20;3.47;;;1.83;;
11711;SDS011;5912;51.034;6.984;2023-07-24T09:26:52;3.05;;;2.38;;
11711;SDS011;5912;51.034;6.984;2023-07-24T09:29:18;2.90;;;1.83;;
11711;SDS011;5912;51.034;6.984;2023-07-24T09:31:44;2.20;;;1.95;;
11711;SDS011;5912;51.034;6.984;2023-07-24T09:34:17;2.75;;;2.15;;
11711;SDS011;5912;51.034;6.984;2023-07-24T09:36:43;2.35;;;2.03;;
11711;SDS011;5912;51.034;6.984;2023-07-24T09:39:09;2.90;;;2.13;;
11711;SDS011;5912;51.034;6.984;2023-07-24T09:41:36;3.28;;;2.03;;
11711;SDS011;5912;51.034;6.984;2023-07-24T09:44:02;3.22;;;1.90;;
11711;SDS011;5912;51.034;6.984;2023-07-24T09:46:28;2.08;;;1.88;;
11711;SDS011;5912;51.034;6.984;2023-07-24T09:48:55;3.22;;;2.50;;
11711;SDS011;5912;51.034;6.984;2023-07-24T09:51:21;2.72;;;2.00;;
11711;SDS011;5912;51.034;6.984;2023-07-24T09:56:45;2.22;;;1.90;;
11711;SDS011;5912;51.034;6.984;2023-07-24T09:59:12;1.83;;;1.60;;
11711;SDS011;5912;51.034;6.984;2023-07-24T10:01:38;2.63;;;2.22;;
11711;SDS011;5912;51.034;6.984;2023-07-24T10:04:04;2.25;;;1.67;;
11711;SDS011;5912;51.034;6.984;2023-07-24T10:06:30;4.03;;;1.70;;
11711;SDS011;5912;51.034;6.984;2023-07-24T10:08:56;1.50;;;1.40;;
11711;SDS011;5912;51.034;6.984;2023-07-24T10:11:22;2.17;;;1.73;;
11711;SDS011;5912;51.034;6.984;2023-07-24T10:13:49;1.77;;;1.52;;
11711;SDS011;5912;51.034;6.984;2023-07-24T10:16:15;1.70;;;1.60;;
11711;SDS011;5912;51.034;6.984;2023-07-24T10:18:42;2.72;;;1.60;;
11711;SDS011;5912;51.034;6.984;2023-07-24T10:21:10;2.00;;;1.77;;
11711;SDS011;5912;51.034;6.984;2023-07-24T10:23:36;1.95;;;1.50;;
11711;SDS011;5912;51.034;6.984;2023-07-24T10:26:06;2.08;;;1.70;;
11711;SDS011;5912;51.034;6.984;2023-07-24T10:28:39;2.53;;;1.63;;
11711;SDS011;5912;51.034;6.984;2023-07-24T10:31:18;3.47;;;1.88;;
11711;SDS011;5912;51.034;6.984;2023-07-24T10:33:45;3.33;;;1.83;;
11711;SDS011;5912;51.034;6.984;2023-07-24T10:36:11;3.20;;;1.55;;
11711;SDS011;5912;51.034;6.984;2023-07-24T10:38:42;2.75;;;1.50;;
11711;SDS011;5912;51.034;6.984;2023-07-24T10:41:09;2.55;;;1.85;;
11711;SDS011;5912;51.034;6.984;2023-07-24T10:43:42;1.88;;;1.60;;
11711;SDS011;5912;51.034;6.984;2023-07-24T10:49:08;3.75;;;1.70;;
11711;SDS011;5912;51.034;6.984;2023-07-24T10:51:34;2.28;;;1.75;;
11711;SDS011;5912;51.034;6.984;2023-07-24T10:54:03;2.03;;;1.70;;
11711;SDS011;5912;51.034;6.984;2023-07-24T10:56:28;2.25;;;1.70;;
11711;SDS011;5912;51.034;6.984;2023-07-24T10:58:54;1.73;;;1.60;;
11711;SDS011;5912;51.034;6.984;2023-07-24T11:01:19;2.50;;;2.00;;
11711;SDS011;5912;51.034;6.984;2023-07-24T11:03:45;1.60;;;1.42;;
11711;SDS011;5912;51.034;6.984;2023-07-24T11:06:18;2.15;;;1.60;;
11711;SDS011;5912;51.034;6.984;2023-07-24T11:08:54;2.00;;;1.80;;
11711;SDS011;5912;51.034;6.984;2023-07-24T11:11:30;2.53;;;1.75;;
11711;SDS011;5912;51.034;6.984;2023-07-24T11:13:56;2.50;;;1.95;;
11711;SDS011;5912;51.034;6.984;2023-07-24T11:16:22;2.60;;;1.98;;
11711;SDS011;5912;51.034;6.984;2023-07-24T11:18:49;2.42;;;1.77;;
11711;SDS011;5912;51.034;6.984;2023-07-24T11:21:16;3.08;;;1.80;;
11711;SDS011;5912;51.034;6.984;2023-07-24T11:23:49;2.13;;;1.70;;
11711;SDS011;5912;51.034;6.984;2023-07-24T11:26:17;3.20;;;1.92;;
11711;SDS011;5912;51.034;6.984;2023-07-24T11:28:43;2.50;;;1.92;;
11711;SDS011;5912;51.034;6.984;2023-07-24T11:31:09;2.00;;;1.60;;
11711;SDS011;5912;51.034;6.984;2023-07-24T11:33:34;2.33;;;1.83;;
11711;SDS011;5912;51.034;6.984;2023-07-24T11:36:00;2.25;;;1.60;;
11711;SDS011;5912;51.034;6.984;2023-07-24T11:38:25;2.45;;;2.00;;
11711;SDS011;5912;51.034;6.984;2023-07-24T11:40:53;2.05;;;1.83;;
11711;SDS011;5912;51.034;6.984;2023-07-24T11:43:20;3.10;;;2.17;;
11711;SDS011;5912;51.034;6.984;2023-07-24T11:45:47;2.60;;;2.30;;
11711;SDS011;5912;51.034;6.984;2023-07-24T11:48:17;3.45;;;2.50;;
11711;SDS011;5912;51.034;6.984;2023-07-24T11:50:43;3.85;;;2.78;;
11711;SDS011;5912;51.034;6.984;2023-07-24T11:53:18;5.75;;;2.67;;
11711;SDS011;5912;51.034;6.984;2023-07-24T11:55:45;6.45;;;2.63;;
11711;SDS011;5912;51.034;6.984;2023-07-24T11:58:13;3.83;;;2.30;;
11711;SDS011;5912;51.034;6.984;2023-07-24T12:00:39;3.38;;;2.35;;
11711;SDS011;5912;51.034;6.984;2023-07-24T12:03:05;4.55;;;2.05;;
11711;SDS011;5912;51.034;6.984;2023-07-24T12:05:50;3.75;;;1.90;;
11711;SDS011;5912;51.034;6.984;2023-07-24T12:08:15;3.33;;;1.73;;
11711;SDS011;5912;51.034;6.984;2023-07-24T12:10:42;3.90;;;1.63;;
11711;SDS011;5912;51.034;6.984;2023-07-24T12:13:08;2.42;;;1.58;;
11711;SDS011;5912;51.034;6.984;2023-07-24T12:15:34;1.92;;;1.30;;
11711;SDS011;5912;51.034;6.984;2023-07-24T12:18:00;1.55;;;1.20;;
11711;SDS011;5912;51.034;6.984;2023-07-24T12:20:29;2.17;;;1.10;;
11711;SDS011;5912;51.034;6.984;2023-07-24T12:22:54;1.60;;;1.10;;
11711;SDS011;5912;51.034;6.984;2023-07-24T12:25:20;1.08;;;0.80;;
11711;SDS011;5912;51.034;6.984;2023-07-24T12:27:49;1.02;;;0.90;;
11711;SDS011;5912;51.034;6.984;2023-07-24T12:30:14;1.35;;;1.00;;
11711;SDS011;5912;51.034;6.984;2023-07-24T12:32:40;1.05;;;0.90;;
11711;SDS011;5912;51.034;6.984;2023-07-24T12:35:06;1.17;;;0.90;;
11711;SDS011;5912;51.034;6.984;2023-07-24T12:37:32;2.03;;;1.00;;
11711;SDS011;5912;51.034;6.984;2023-07-24T12:39:58;1.45;;;1.00;;
11711;SDS011;5912;51.034;6.984;2023-07-24T12:42:23;0.90;;;0.90;;
11711;SDS011;5912;51.034;6.984;2023-07-24T12:44:48;1.20;;;0.90;;
11711;SDS011;5912;51.034;6.984;2023-07-24T12:47:14;0.90;;;0.82;;
11711;SDS011;5912;51.034;6.984;2023-07-24T12:49:39;1.60;;;0.98;;
11711;SDS011;5912;51.034;6.984;2023-07-24T12:52:05;0.93;;;0.80;;
11711;SDS011;5912;51.034;6.984;2023-07-24T12:54:31;1.00;;;0.80;;
11711;SDS011;5912;51.034;6.984;2023-07-24T12:56:57;1.58;;;1.05;;
11711;SDS011;5912;51.034;6.984;2023-07-24T12:59:22;1.10;;;1.00;;
11711;SDS011;5912;51.034;6.984;2023-07-24T13:01:47;1.27;;;1.05;;
11711;SDS011;5912;51.034;6.984;2023-07-24T13:04:13;1.27;;;0.90;;
11711;SDS011;5912;51.034;6.984;2023-07-24T13:06:38;0.80;;;0.80;;
11711;SDS011;5912;51.034;6.984;2023-07-24T13:09:04;1.30;;;1.00;;
11711;SDS011;5912;51.034;6.984;2023-07-24T13:11:30;1.30;;;1.10;;
11711;SDS011;5912;51.034;6.984;2023-07-24T13:13:55;0.82;;;0.80;;
11711;SDS011;5912;51.034;6.984;2023-07-24T13:16:30;0.82;;;0.80;;
11711;SDS011;5912;51.034;6.984;2023-07-24T13:18:56;1.05;;;0.73;;
11711;SDS011;5912;51.034;6.984;2023-07-24T13:21:21;1.00;;;0.80;;
11711;SDS011;5912;51.034;6.984;2023-07-24T13:23:47;0.65;;;0.60;;
11711;SDS011;5912;51.034;6.984;2023-07-24T13:26:12;1.33;;;0.80;;
11711;SDS011;5912;51.034;6.984;2023-07-24T13:28:38;1.08;;;0.98;;
11711;SDS011;5912;51.034;6.984;2023-07-24T13:31:17;1.10;;;1.00;;
11711;SDS011;5912;51.034;6.984;2023-07-24T13:33:44;1.40;;;0.82;;
11711;SDS011;5912;51.034;6.984;2023-07-24T13:36:09;1.45;;;1.00;;
11711;SDS011;5912;51.034;6.984;2023-07-24T13:38:35;1.00;;;0.90;;
11711;SDS011;5912;51.034;6.984;2023-07-24T13:41:01;1.00;;;0.90;;
11711;SDS011;5912;51.034;6.984;2023-07-24T13:43:26;1.58;;;0.88;;
11711;SDS011;5912;51.034;6.984;2023-07-24T13:45:52;1.20;;;0.80;;
11711;SDS011;5912;51.034;6.984;2023-07-24T13:48:18;0.95;;;0.80;;
11711;SDS011;5912;51.034;6.984;2023-07-24T13:50:43;1.10;;;0.90;;
11711;SDS011;5912;51.034;6.984;2023-07-24T13:53:08;1.15;;;0.98;;
11711;SDS011;5912;51.034;6.984;2023-07-24T13:55:34;1.45;;;0.80;;
11711;SDS011;5912;51.034;6.984;2023-07-24T13:57:59;0.95;;;0.70;;
11711;SDS011;5912;51.034;6.984;2023-07-24T14:00:25;0.70;;;0.60;;
11711;SDS011;5912;51.034;6.984;2023-07-24T14:02:51;0.80;;;0.80;;
11711;SDS011;5912;51.034;6.984;2023-07-24T14:05:17;1.17;;;0.98;;
11711;SDS011;5912;51.034;6.984;2023-07-24T14:07:42;0.88;;;0.77;;
11711;SDS011;5912;51.034;6.984;2023-07-24T14:10:08;1.08;;;0.85;;
11711;SDS011;5912;51.034;6.984;2023-07-24T14:12:34;1.23;;;1.13;;
11711;SDS011;5912;51.034;6.984;2023-07-24T14:14:59;1.10;;;1.00;;
11711;SDS011;5912;51.034;6.984;2023-07-24T14:17:24;0.82;;;0.80;;
11711;SDS011;5912;51.034;6.984;2023-07-24T14:19:50;0.80;;;0.77;;
11711;SDS011;5912;51.034;6.984;2023-07-24T14:22:15;1.48;;;1.00;;
11711;SDS011;5912;51.034;6.984;2023-07-24T14:24:40;1.00;;;0.90;;
11711;SDS011;5912;51.034;6.984;2023-07-24T14:27:06;0.93;;;0.82;;
11711;SDS011;5912;51.034;6.984;2023-07-24T14:29:31;1.48;;;1.20;;
11711;SDS011;5912;51.034;6.984;2023-07-24T14:31:56;1.70;;;1.20;;
11711;SDS011;5912;51.034;6.984;2023-07-24T14:34:22;1.00;;;0.90;;
11711;SDS011;5912;51.034;6.984;2023-07-24T14:36:47;1.30;;;1.05;;
11711;SDS011;5912;51.034;6.984;2023-07-24T14:39:12;1.40;;;1.10;;
11711;SDS011;5912;51.034;6.984;2023-07-24T14:41:37;2.60;;;1.20;;
11711;SDS011;5912;51.034;6.984;2023-07-24T14:44:03;1.20;;;0.90;;
11711;SDS011;5912;51.034;6.984;2023-07-24T14:46:28;1.33;;;1.23;;
11711;SDS011;5912;51.034;6.984;2023-07-24T14:48:54;1.42;;;1.02;;
11711;SDS011;5912;51.034;6.984;2023-07-24T14:51:19;1.30;;;0.95;;
11711;SDS011;5912;51.034;6.984;2023-07-24T14:53:44;1.38;;;0.80;;
11711;SDS011;5912;51.034;6.984;2023-07-24T14:56:09;1.00;;;0.90;;
11711;SDS011;5912;51.034;6.984;2023-07-24T14:58:44;1.88;;;1.35;;
11711;SDS011;5912;51.034;6.984;2023-07-24T15:01:10;1.50;;;1.33;;
11711;SDS011;5912;51.034;6.984;2023-07-24T15:03:36;1.00;;;0.90;;